Terminal Aerodrome Forecast
Issued by NWS North Platte, NE

Home | Current Version | Previous Version | Text Only | Print | Product List | Glossary Off
Versions: 1 2 3 4 5 6 7 8 9 10 11 12 13 14 15 16 17 18

000
FTUS43 KLBF 291800 AAA
TAFVTN
TAF AMD
KVTN 291824Z 2918/3018 09011KT P6SM OVC009
     FM292000 12015G22KT P6SM VCSH OVC015
     FM292200 12015G25KT P6SM -RA SCT015 OVC025
     FM300500 12020G28KT 3SM -SHRA BR BKN015
     FM300900 15020G28KT P6SM OVC015
     FM301200 18020G28KT P6SM OVC015
     FM301500 20020G30KT P6SM SCT020 BKN040=

USA.gov is the U.S. government's official web portal to all federal, state and local government web resources and services.